Clenchwarton, United Kingdom
Current Conditions -  °F | °C
As of 12:50 AM on Saturday 25 Oct 2014 (Local Time) from EGYM Reporting Station
Clear Clear  
Wind Chill: 42°   Ceiling: Unl
Heat Index: 45°   Visibility: 6mi
Dew Point: 45°   Wind: 5mph
Humidity: 100%   Direction: 240°WSW
Pressure: 29.94"   Gusts: NA
Location:  52.76°N, 0.36°E
Report Text: EGYM 242350Z AUTO 24004KT 9999 NCD 07/07 Q1014
Loading
Personal Weather Stations






























Interactive Weather Map
Tropical Storm Tracking
New forecast layout! Learn more

10-Day Weather Forecast

Advertisements
Track Severe Weather on mobile